Time;durP1;ratioP1;P1;durP2;ratioP2;P2;SDS_P1;SDS_P2;PMS_P1;PMS_P2;Temp;Humidity;BMP_temperature;BMP_pressure;BME280_temperature;BME280_humidity;BME280_pressure;Samples;Min_cycle;Max_cycle;Signal;HPM_P1;HPM_P2
2023/11/12 00:03:14;;;;;;;26.20;15.43;;;6.10;99.90;;;;;;15557502;22;20103;-34
2023/11/12 00:09:38;;;;;;;25.83;16.38;;;5.90;99.90;;;;;;15579280;22;20020;-34
2023/11/12 00:16:24;;;;;;;28.10;16.42;;;5.90;99.90;;;;;;15557265;22;20024;-34
2023/11/12 00:23:13;;;;;;;29.95;18.70;;;6.00;99.90;;;;;;15580527;22;20454;-34
2023/11/12 00:29:59;;;;;;;27.73;17.52;;;6.00;99.90;;;;;;15558847;22;20032;-34
2023/11/12 00:36:30;;;;;;;31.27;18.77;;;6.00;99.90;;;;;;15554955;22;20039;-34
2023/11/12 00:43:08;;;;;;;27.10;17.55;;;6.00;99.90;;;;;;15577858;22;20016;-34
2023/11/12 00:49:54;;;;;;;30.43;18.00;;;6.00;99.90;;;;;;15577976;22;20326;-33
2023/11/12 00:56:25;;;;;;;26.45;16.75;;;6.10;99.90;;;;;;15577633;22;20020;-34
2023/11/12 01:03:12;;;;;;;23.97;15.80;;;6.10;99.90;;;;;;15577844;22;20019;-34
2023/11/12 01:09:34;;;;;;;24.98;16.02;;;6.00;99.90;;;;;;15575960;22;20532;-34
2023/11/12 01:16:21;;;;;;;26.65;16.85;;;6.00;99.90;;;;;;15579127;22;20094;-34
2023/11/12 01:22:44;;;;;;;26.13;15.85;;;6.00;99.90;;;;;;15578554;22;20099;-34
2023/11/12 01:29:07;;;;;;;24.92;14.77;;;6.00;99.90;;;;;;15576669;22;20027;-35
2023/11/12 01:35:46;;;;;;;23.98;14.20;;;6.00;99.90;;;;;;15479399;23;20020;-34
2023/11/12 01:42:26;;;;;;;21.73;13.75;;;6.00;99.90;;;;;;15501691;23;20027;-35
2023/11/12 01:48:53;;;;;;;23.75;14.10;;;6.00;99.90;;;;;;15502185;23;20020;-34
2023/11/12 01:55:35;;;;;;;21.42;12.70;;;6.00;99.90;;;;;;15503290;23;20350;-34
2023/11/12 02:02:10;;;;;;;22.50;13.73;;;6.10;99.90;;;;;;15501558;23;20020;-34
2023/11/12 02:09:02;;;;;;;22.73;13.93;;;6.10;99.90;;;;;;15502465;23;20095;-34
2023/11/12 02:15:58;;;;;;;22.05;12.82;;;6.10;99.90;;;;;;15500870;23;20415;-33
2023/11/12 02:22:33;;;;;;;22.42;12.85;;;6.10;99.90;;;;;;15498077;23;20020;-34
2023/11/12 02:29:13;;;;;;;22.27;13.48;;;6.10;99.90;;;;;;15479598;23;20163;-34
2023/11/12 02:35:53;;;;;;;20.77;11.77;;;6.20;99.90;;;;;;15555265;22;20098;-34
2023/11/12 02:42:30;;;;;;;24.00;12.05;;;6.10;99.90;;;;;;15578469;22;20053;-34
2023/11/12 02:49:43;;;;;;;19.75;11.30;;;6.20;99.90;;;;;;15576406;22;20026;-34
2023/11/12 02:56:34;;;;;;;18.90;11.50;;;6.20;99.90;;;;;;15578905;22;20019;-34
2023/11/12 03:03:20;;;;;;;15.57;10.40;;;6.20;99.90;;;;;;15555984;22;20027;-34
2023/11/12 03:09:59;;;;;;;21.50;11.70;;;6.20;99.90;;;;;;15574182;22;20034;-34
2023/11/12 03:16:40;;;;;;;17.48;10.82;;;6.10;99.90;;;;;;15577931;22;20039;-34
2023/11/12 03:23:18;;;;;;;21.05;11.85;;;6.20;99.90;;;;;;15578734;22;20016;-34
2023/11/12 03:29:40;;;;;;;21.58;12.30;;;6.10;99.90;;;;;;15580815;22;20020;-34
2023/11/12 03:36:28;;;;;;;18.13;10.88;;;6.20;99.90;;;;;;15582759;22;20427;-34
2023/11/12 03:43:06;;;;;;;18.05;12.13;;;6.20;99.90;;;;;;15567259;22;20069;-34
2023/11/12 03:49:40;;;;;;;21.98;13.02;;;6.10;99.90;;;;;;15579551;22;20020;-34
2023/11/12 03:56:20;;;;;;;20.08;11.88;;;6.10;99.90;;;;;;15582197;22;20361;-34
2023/11/12 04:02:56;;;;;;;19.33;11.07;;;6.10;99.90;;;;;;15580153;22;20043;-34
2023/11/12 04:09:43;;;;;;;18.52;11.60;;;6.10;99.90;;;;;;15578810;22;20026;-34
2023/11/12 04:16:34;;;;;;;17.52;11.13;;;6.10;99.90;;;;;;15578360;22;20027;-34
2023/11/12 04:23:18;;;;;;;18.25;11.27;;;6.10;99.90;;;;;;15558847;22;20046;-34
2023/11/12 04:30:11;;;;;;;19.08;11.95;;;6.00;99.90;;;;;;15554826;22;20098;-33
2023/11/12 04:37:00;;;;;;;25.17;12.15;;;6.00;99.90;;;;;;15577879;22;20028;-34
2023/11/12 04:43:29;;;;;;;20.40;12.30;;;6.10;99.90;;;;;;15578893;22;20023;-33
2023/11/12 04:50:14;;;;;;;27.67;13.07;;;6.10;99.90;;;;;;15579618;22;20030;-34
2023/11/12 04:56:53;;;;;;;19.63;12.20;;;6.10;99.90;;;;;;15579108;22;20020;-34
2023/11/12 05:03:32;;;;;;;;;;;;;;;;;;;;;
2023/11/12 05:10:10;;;;;;;20.25;11.63;;;6.10;99.90;;;;;;15579698;22;20465;-34
2023/11/12 05:17:02;;;;;;;20.05;11.23;;;6.20;99.90;;;;;;15576810;22;20110;-33
2023/11/12 05:23:41;;;;;;;18.85;11.38;;;6.00;99.90;;;;;;15578146;22;20024;-34
2023/11/12 05:30:17;;;;;;;20.33;11.68;;;6.00;99.90;;;;;;15574569;22;20042;-34
2023/11/12 05:36:45;;;;;;;20.30;12.13;;;6.20;99.90;;;;;;15554428;22;20069;-33
2023/11/12 05:43:23;;;;;;;19.33;11.23;;;6.10;99.90;;;;;;15578201;22;20016;-33
2023/11/12 05:50:04;;;;;;;17.88;10.70;;;6.00;99.90;;;;;;15576198;22;20461;-33
2023/11/12 05:56:25;;;;;;;22.25;11.60;;;6.00;99.90;;;;;;15577645;22;20024;-34
2023/11/12 06:03:06;;;;;;;20.58;12.00;;;6.00;99.90;;;;;;15576385;22;20028;-34
2023/11/12 06:09:26;;;;;;;20.83;11.80;;;6.10;99.90;;;;;;15575898;22;20020;-34
2023/11/12 06:15:44;;;;;;;20.40;12.15;;;6.10;99.90;;;;;;15563078;22;20026;-34
2023/11/12 06:22:11;;;;;;;18.38;11.40;;;6.00;99.90;;;;;;15577526;22;20051;-34
2023/11/12 06:28:51;;;;;;;20.88;11.88;;;6.00;99.90;;;;;;15573003;22;20030;-34
2023/11/12 06:35:12;;;;;;;18.77;10.88;;;6.00;99.90;;;;;;15575378;22;20039;-34
2023/11/12 06:41:44;;;;;;;22.20;12.23;;;6.10;99.90;;;;;;15553659;22;20469;-34
2023/11/12 06:48:32;;;;;;;21.05;11.32;;;6.00;99.90;;;;;;15577423;22;20443;-34
2023/11/12 06:55:10;;;;;;;19.73;11.63;;;6.00;99.90;;;;;;15575450;22;20031;-34
2023/11/12 07:01:29;;;;;;;17.83;10.43;;;6.00;99.90;;;;;;15580879;22;20453;-35
2023/11/12 07:07:58;;;;;;;20.00;10.63;;;6.10;99.90;;;;;;15569893;22;20023;-35
2023/11/12 07:14:39;;;;;;;17.85;10.70;;;6.10;99.90;;;;;;15560297;22;20474;-35
2023/11/12 07:21:14;;;;;;;15.05;9.55;;;6.10;99.90;;;;;;15580806;22;20023;-34
2023/11/12 07:27:36;;;;;;;17.03;9.90;;;6.10;99.90;;;;;;15581146;22;20016;-34
2023/11/12 07:34:03;;;;;;;17.90;9.27;;;6.20;99.90;;;;;;15580540;22;20780;-34
2023/11/12 07:40:42;;;;;;;18.77;9.88;;;6.20;99.90;;;;;;15581750;22;20352;-34
2023/11/12 07:47:10;;;;;;;18.80;9.63;;;6.30;99.90;;;;;;15579959;22;20786;-34
2023/11/12 07:53:38;;;;;;;17.88;10.68;;;6.40;99.90;;;;;;15556144;22;20461;-34
2023/11/12 07:59:59;;;;;;;18.75;9.77;;;6.40;99.90;;;;;;15579156;22;20028;-34
2023/11/12 08:06:15;;;;;;;15.88;9.88;;;6.40;99.90;;;;;;15571719;22;20047;-34
2023/11/12 08:12:29;;;;;;;18.17;10.48;;;6.40;99.90;;;;;;15551313;22;20089;-33
2023/11/12 08:18:48;;;;;;;17.65;10.52;;;6.50;99.90;;;;;;15550733;22;20095;-34
2023/11/12 08:25:15;;;;;;;15.85;9.90;;;6.50;99.90;;;;;;15575525;22;20015;-34
2023/11/12 08:31:36;;;;;;;20.10;11.00;;;6.50;99.90;;;;;;15571084;22;20028;-34
2023/11/12 08:37:47;;;;;;;18.10;10.35;;;6.60;99.90;;;;;;15576834;22;20398;-34
2023/11/12 08:44:06;;;;;;;17.77;10.52;;;6.60;99.90;;;;;;15571027;22;20020;-35
2023/11/12 08:50:30;;;;;;;14.18;9.65;;;6.80;99.90;;;;;;15577614;22;20509;-34
2023/11/12 08:56:47;;;;;;;17.60;11.00;;;6.80;99.90;;;;;;15579785;22;20024;-34
2023/11/12 09:03:07;;;;;;;22.17;10.45;;;6.90;99.90;;;;;;15577992;22;20539;-34
2023/11/12 09:09:28;;;;;;;20.40;10.13;;;6.80;99.90;;;;;;15545876;22;20031;-34
2023/11/12 09:15:58;;;;;;;17.80;10.68;;;6.80;99.90;;;;;;15568705;22;20016;-35
2023/11/12 09:22:21;;;;;;;19.25;10.73;;;6.60;99.90;;;;;;15576620;22;20163;-34
2023/11/12 09:28:45;;;;;;;17.27;11.40;;;6.60;99.90;;;;;;15573506;22;20451;-34
2023/11/12 09:35:16;;;;;;;22.15;11.40;;;6.80;99.90;;;;;;15576744;22;20481;-35
2023/11/12 09:41:53;;;;;;;15.95;10.27;;;7.00;99.90;;;;;;15572854;22;20492;-34
2023/11/12 09:48:28;;;;;;;18.27;10.30;;;7.00;99.90;;;;;;15570276;22;20034;-34
2023/11/12 09:54:49;;;;;;;18.15;10.25;;;6.90;99.90;;;;;;15576248;22;20019;-34
2023/11/12 10:01:13;;;;;;;14.13;9.45;;;6.90;99.90;;;;;;15570603;22;20024;-34
2023/11/12 10:07:29;;;;;;;15.23;8.95;;;6.90;99.90;;;;;;15576042;22;20051;-34
2023/11/12 10:13:54;;;;;;;14.40;8.38;;;6.80;99.90;;;;;;15573090;22;20063;-34
2023/11/12 10:20:39;;;;;;;13.02;7.88;;;6.80;99.90;;;;;;15572873;22;20030;-34
2023/11/12 10:26:50;;;;;;;12.60;7.40;;;6.90;99.90;;;;;;15575851;22;20047;-34
2023/11/12 10:33:29;;;;;;;11.10;7.78;;;7.00;99.90;;;;;;15549013;22;20023;-33
2023/11/12 10:39:52;;;;;;;13.68;8.75;;;6.90;99.90;;;;;;15554558;22;20091;-34
2023/11/12 10:46:16;;;;;;;13.43;8.98;;;7.10;99.90;;;;;;15583080;22;20358;-33
2023/11/12 10:52:42;;;;;;;16.95;8.85;;;7.40;99.90;;;;;;15580399;22;20023;-34
2023/11/12 10:59:15;;;;;;;12.77;8.50;;;7.60;99.90;;;;;;15559138;22;20019;-34
2023/11/12 11:05:46;;;;;;;12.13;7.85;;;7.60;99.90;;;;;;15554361;22;20027;-34
2023/11/12 11:12:26;;;;;;;14.68;8.05;;;7.50;99.90;;;;;;15552198;22;20034;-33
2023/11/12 11:19:06;;;;;;;11.65;8.02;;;7.60;99.90;;;;;;15577192;22;20039;-34
2023/11/12 11:25:33;;;;;;;12.77;7.90;;;7.50;99.90;;;;;;15575033;22;20323;-34
2023/11/12 11:32:14;;;;;;;10.88;7.63;;;7.50;99.90;;;;;;15553246;22;20023;-35
2023/11/12 11:38:28;;;;;;;9.65;7.00;;;8.00;99.90;;;;;;15579293;22;20031;-32
2023/11/12 11:44:51;;;;;;;14.10;6.90;;;8.30;99.90;;;;;;15575152;22;20065;-35
2023/11/12 11:51:37;;;;;;;9.35;6.43;;;8.50;99.90;;;;;;15577792;22;20023;-36
2023/11/12 11:57:53;;;;;;;10.23;6.43;;;8.60;99.90;;;;;;15575899;22;20031;-32
2023/11/12 12:04:11;;;;;;;8.35;5.80;;;8.70;99.90;;;;;;15574911;22;20480;-33
2023/11/12 12:10:33;;;;;;;11.20;5.97;;;9.20;99.90;;;;;;15572136;22;20458;-33
2023/11/12 12:16:45;;;;;;;7.03;4.78;;;9.30;99.90;;;;;;15577841;22;20436;-33
2023/11/12 12:23:02;;;;;;;6.70;4.95;;;9.10;99.90;;;;;;15575851;22;20055;-33
2023/11/12 12:29:26;;;;;;;7.25;4.40;;;9.20;99.90;;;;;;15574422;22;20027;-33
2023/11/12 12:35:52;;;;;;;7.15;4.10;;;9.30;99.90;;;;;;15552631;22;20124;-33
2023/11/12 12:42:48;;;;;;;5.88;3.95;;;9.20;99.90;;;;;;12080441;27;17189131;-34
2023/11/12 12:49:01;;;;;;;5.47;3.72;;;8.70;99.90;;;;;;12615921;28;20055;-34
2023/11/12 12:55:24;;;;;;;6.25;3.90;;;8.40;99.90;;;;;;12621992;28;20127;-34
2023/11/12 13:01:56;;;;;;;6.40;3.30;;;8.30;99.90;;;;;;12617956;28;20631;-34
2023/11/12 13:08:40;;;;;;;8.07;3.25;;;8.10;99.90;;;;;;12615392;28;20048;-34
2023/11/12 13:15:24;;;;;;;6.32;3.78;;;8.30;99.90;;;;;;12600843;28;20072;-34
2023/11/12 13:22:02;;;;;;;6.13;3.33;;;8.30;99.90;;;;;;12591952;28;20041;-34
2023/11/12 13:28:56;;;;;;;4.10;2.80;;;8.70;99.90;;;;;;12591202;28;20476;-34
2023/11/12 13:35:38;;;;;;;4.03;2.47;;;8.80;99.90;;;;;;12586539;28;20097;-34
2023/11/12 13:42:39;;;;;;;4.65;2.08;;;8.80;99.90;;;;;;12632417;28;20473;-34
2023/11/12 13:49:15;;;;;;;5.40;2.20;;;8.50;99.90;;;;;;12634023;28;20057;-34
2023/11/12 13:55:46;;;;;;;5.38;2.03;;;8.40;99.90;;;;;;12600842;28;20201;-35
2023/11/12 14:02:07;;;;;;;2.58;1.90;;;8.30;99.90;;;;;;12604704;28;20456;-34
2023/11/12 14:08:21;;;;;;;3.00;1.90;;;8.20;99.90;;;;;;12594092;28;20493;-35
2023/11/12 14:14:32;;;;;;;2.58;1.73;;;8.20;99.90;;;;;;12599724;28;20049;-34
2023/11/12 14:20:40;;;;;;;4.53;2.10;;;8.20;99.90;;;;;;12605580;28;20559;-34
2023/11/12 14:26:48;;;;;;;3.15;2.10;;;8.20;99.90;;;;;;12598935;28;20040;-34
2023/11/12 14:33:00;;;;;;;3.40;1.98;;;8.20;99.90;;;;;;12587503;28;20048;-34
2023/11/12 14:39:18;;;;;;;4.25;1.98;;;8.10;99.90;;;;;;12584879;28;20080;-35
2023/11/12 14:45:33;;;;;;;3.95;2.22;;;8.20;99.90;;;;;;12601014;28;20093;-34
2023/11/12 14:52:04;;;;;;;2.67;1.55;;;8.10;99.90;;;;;;12603801;28;20120;-34
2023/11/12 14:58:36;;;;;;;4.60;1.80;;;8.00;99.90;;;;;;12602940;28;20052;-35
2023/11/12 15:05:13;;;;;;;3.25;1.80;;;8.00;99.90;;;;;;12585037;28;20461;-35
2023/11/12 15:12:07;;;;;;;5.30;2.00;;;7.90;99.90;;;;;;12062015;27;13404728;-35
2023/11/12 15:18:45;;;;;;;3.03;1.40;;;7.80;99.90;;;;;;12471649;28;20192;-35
2023/11/12 15:25:13;;;;;;;;;;;7.80;99.90;;;;;;12475098;28;20518;-35
2023/11/12 15:31:44;;;;;;;3.50;2.15;;;7.70;99.90;;;;;;12476629;28;20370;-34
2023/11/12 15:38:22;;;;;;;4.35;1.67;;;7.60;99.90;;;;;;12477721;28;20058;-35
2023/11/12 15:44:52;;;;;;;3.47;1.33;;;7.60;99.90;;;;;;12472565;28;20085;-34
2023/11/12 15:51:26;;;;;;;4.57;1.60;;;7.70;99.90;;;;;;12474609;28;20056;-35
2023/11/12 15:57:49;;;;;;;3.13;1.73;;;7.60;99.90;;;;;;12490520;28;20062;-35
2023/11/12 16:04:09;;;;;;;3.35;1.90;;;7.60;99.90;;;;;;12472689;28;20149;-35
2023/11/12 16:10:28;;;;;;;4.28;1.92;;;7.50;99.90;;;;;;12503414;28;20452;-34
2023/11/12 16:16:49;;;;;;;4.13;2.03;;;7.50;99.90;;;;;;12516287;28;20210;-34
2023/11/12 16:23:06;;;;;;;3.88;2.30;;;7.50;99.90;;;;;;12481252;28;20050;-34
2023/11/12 16:29:18;;;;;;;5.68;3.03;;;7.50;99.90;;;;;;12479325;28;20072;-34
2023/11/12 16:35:34;;;;;;;5.78;2.28;;;7.50;99.90;;;;;;12485147;28;20057;-34
2023/11/12 16:41:49;;;;;;;3.90;2.30;;;7.50;99.90;;;;;;12468660;28;20140;-35
2023/11/12 16:48:02;;;;;;;5.05;2.67;;;7.40;99.90;;;;;;12471242;28;20045;-35
2023/11/12 16:54:27;;;;;;;4.70;2.40;;;7.30;99.90;;;;;;12485793;28;20124;-34
2023/11/12 17:01:01;;;;;;;5.05;2.70;;;7.20;99.90;;;;;;12486758;28;20045;-34
2023/11/12 17:07:34;;;;;;;5.35;2.72;;;7.40;99.90;;;;;;12486149;28;20062;-34
2023/11/12 17:14:15;;;;;;;5.10;2.67;;;7.20;99.90;;;;;;12481645;28;20041;-34
2023/11/12 17:20:56;;;;;;;4.00;2.28;;;6.90;99.90;;;;;;12483230;28;20482;-34
2023/11/12 17:27:31;;;;;;;5.80;3.05;;;7.10;99.90;;;;;;12484527;28;20460;-34
2023/11/12 17:34:27;;;;;;;5.65;2.70;;;6.90;99.90;;;;;;12482513;28;20171;-34
2023/11/12 17:41:00;;;;;;;6.25;2.65;;;7.00;99.90;;;;;;12490200;28;20068;-34
2023/11/12 17:47:29;;;;;;;4.05;2.38;;;6.80;99.90;;;;;;12469810;28;20042;-34
2023/11/12 17:53:55;;;;;;;4.22;2.30;;;6.80;99.90;;;;;;12483787;28;20054;-34
2023/11/12 18:00:27;;;;;;;4.57;2.40;;;6.80;99.90;;;;;;12483420;28;20049;-34
2023/11/12 18:06:37;;;;;;;5.70;2.20;;;6.90;99.90;;;;;;12478077;28;20077;-34
2023/11/12 18:12:50;;;;;;;4.68;2.35;;;6.90;99.90;;;;;;12488504;28;20502;-34
2023/11/12 18:19:07;;;;;;;6.70;2.77;;;7.00;99.90;;;;;;12479423;28;20525;-34
2023/11/12 18:25:39;;;;;;;4.35;2.45;;;7.00;99.90;;;;;;12481006;28;20072;-34
2023/11/12 18:32:03;;;;;;;3.72;2.22;;;7.00;99.90;;;;;;12480412;28;20451;-34
2023/11/12 18:38:29;;;;;;;4.70;2.60;;;7.10;99.90;;;;;;12478227;28;20143;-34
2023/11/12 18:44:49;;;;;;;4.22;2.70;;;7.00;99.90;;;;;;12480844;28;20060;-34
2023/11/12 18:51:06;;;;;;;4.53;2.70;;;6.90;99.90;;;;;;12483154;28;20409;-34
2023/11/12 18:57:22;;;;;;;5.50;2.80;;;6.90;99.90;;;;;;12480895;28;20081;-33
2023/11/12 19:03:33;;;;;;;7.95;2.63;;;6.80;99.90;;;;;;12478147;28;20061;-34
2023/11/12 19:10:11;;;;;;;5.43;2.83;;;6.80;99.90;;;;;;12479657;28;20781;-34
2023/11/12 19:16:39;;;;;;;4.47;2.55;;;6.60;99.90;;;;;;12482220;28;20049;-34
2023/11/12 19:23:01;;;;;;;5.53;2.50;;;6.70;99.90;;;;;;12485139;28;20099;-34
2023/11/12 19:29:11;;;;;;;5.28;2.95;;;6.60;99.90;;;;;;12481281;28;20493;-34
2023/11/12 19:35:30;;;;;;;4.53;2.65;;;6.50;99.90;;;;;;12479252;28;20064;-34
2023/11/12 19:41:57;;;;;;;4.97;2.90;;;6.50;99.90;;;;;;12478237;28;20053;-34
2023/11/12 19:48:22;;;;;;;5.57;2.72;;;6.40;99.90;;;;;;12481693;28;20061;-34
2023/11/12 19:54:47;;;;;;;4.00;2.63;;;6.30;99.90;;;;;;12486743;28;20110;-34
2023/11/12 20:01:07;;;;;;;6.53;2.55;;;6.40;99.90;;;;;;12485968;28;20053;-34
2023/11/12 20:07:25;;;;;;;6.80;2.53;;;6.40;99.90;;;;;;12489286;28;20108;-34
2023/11/12 20:13:39;;;;;;;8.48;2.88;;;6.10;99.90;;;;;;12466272;28;20053;-34
2023/11/12 20:19:54;;;;;;;4.65;3.05;;;6.00;99.90;;;;;;12483728;28;20093;-34
2023/11/12 20:26:05;;;;;;;4.93;2.80;;;5.90;99.90;;;;;;12486114;28;20060;-34
2023/11/12 20:32:39;;;;;;;5.13;2.83;;;5.80;99.90;;;;;;12467004;28;20451;-34
2023/11/12 20:38:58;;;;;;;3.97;2.72;;;5.70;99.90;;;;;;12486205;28;20049;-34
2023/11/12 20:45:20;;;;;;;5.03;2.20;;;5.60;99.90;;;;;;12483159;28;20140;-34
2023/11/12 20:51:34;;;;;;;6.82;2.78;;;5.60;99.90;;;;;;12479883;28;20091;-34
2023/11/12 20:57:52;;;;;;;4.57;2.60;;;5.70;99.90;;;;;;12486079;28;20128;-34
2023/11/12 21:04:16;;;;;;;4.65;2.63;;;5.70;99.90;;;;;;12485781;28;20419;-34
2023/11/12 21:10:35;;;;;;;5.57;3.13;;;5.80;99.90;;;;;;12486199;28;20449;-34
2023/11/12 21:16:56;;;;;;;6.20;2.50;;;5.80;99.90;;;;;;12483240;28;20052;-34
2023/11/12 21:23:18;;;;;;;4.80;2.85;;;5.70;99.90;;;;;;12480165;28;20045;-34
2023/11/12 21:29:35;;;;;;;3.83;2.33;;;5.70;99.90;;;;;;12468371;28;20049;-34
2023/11/12 21:35:57;;;;;;;4.30;2.40;;;5.80;99.90;;;;;;12485073;28;20041;-34
2023/11/12 21:42:14;;;;;;;4.63;2.67;;;5.80;99.90;;;;;;12482700;28;20054;-34
2023/11/12 21:48:35;;;;;;;5.80;2.47;;;5.80;99.90;;;;;;12480628;28;20596;-34
2023/11/12 21:54:50;;;;;;;6.38;2.30;;;5.70;99.90;;;;;;12486615;28;20148;-34
2023/11/12 22:01:04;;;;;;;3.42;2.28;;;5.70;99.90;;;;;;12482099;28;20050;-34
2023/11/12 22:07:24;;;;;;;8.15;2.60;;;5.60;99.90;;;;;;12480253;28;20072;-34
2023/11/12 22:13:45;;;;;;;6.75;2.47;;;5.50;99.90;;;;;;12482192;28;20077;-34
2023/11/12 22:20:05;;;;;;;6.53;2.42;;;5.40;99.90;;;;;;12479849;28;20057;-35
2023/11/12 22:26:28;;;;;;;5.40;2.15;;;5.40;99.90;;;;;;12483783;28;20128;-34
2023/11/12 22:32:55;;;;;;;4.45;2.15;;;5.20;99.90;;;;;;12480018;28;20053;-35
2023/11/12 22:39:08;;;;;;;4.07;2.15;;;5.10;99.90;;;;;;12488230;28;20054;-34
2023/11/12 22:45:23;;;;;;;4.35;2.20;;;5.10;99.90;;;;;;12480404;28;20074;-34
2023/11/12 22:51:47;;;;;;;3.63;2.17;;;5.10;99.90;;;;;;12479685;28;20476;-34
2023/11/12 22:58:13;;;;;;;4.50;2.75;;;5.10;99.90;;;;;;12485115;28;20061;-34
2023/11/12 23:04:38;;;;;;;4.07;2.28;;;5.20;99.90;;;;;;12464908;28;20058;-35
2023/11/12 23:10:55;;;;;;;4.07;2.25;;;5.20;99.90;;;;;;12447437;28;20536;-35
2023/11/12 23:17:09;;;;;;;4.72;2.30;;;5.10;99.90;;;;;;12435967;28;20042;-35
2023/11/12 23:23:23;;;;;;;4.97;2.10;;;5.10;99.90;;;;;;12447562;28;20509;-35
2023/11/12 23:29:38;;;;;;;8.25;2.15;;;5.10;99.90;;;;;;12426719;28;20049;-34
2023/11/12 23:36:06;;;;;;;3.45;2.00;;;5.20;99.90;;;;;;12441356;28;20617;-34
2023/11/12 23:42:31;;;;;;;4.78;2.50;;;5.10;99.90;;;;;;12436681;28;20053;-34
2023/11/12 23:48:41;;;;;;;6.20;2.38;;;5.10;99.90;;;;;;12442290;28;20042;-34
2023/11/12 23:54:51;;;;;;;3.67;1.98;;;4.90;99.90;;;;;;12454050;28;20050;-34
